createdAt,value
2019-05-01T00:01:44.093Z,3.83
2019-05-01T00:04:19.887Z,3.50
2019-05-01T00:06:55.913Z,3.43
2019-05-01T00:09:24.437Z,4.30
2019-05-01T00:11:52.926Z,4.20
2019-05-01T00:14:21.543Z,4.57
2019-05-01T00:16:50.265Z,3.90
2019-05-01T00:19:18.828Z,4.27
2019-05-01T00:21:47.310Z,5.43
2019-05-01T00:24:15.819Z,3.80
2019-05-01T00:26:44.295Z,4.47
2019-05-01T00:29:12.816Z,4.20
2019-05-01T00:31:41.290Z,4.33
2019-05-01T00:34:09.798Z,4.47
2019-05-01T00:36:38.258Z,4.50
2019-05-01T00:39:08.180Z,4.77
2019-05-01T00:41:36.641Z,4.53
2019-05-01T00:44:05.195Z,4.33
2019-05-01T00:46:33.688Z,4.40
2019-05-01T00:49:02.190Z,4.97
2019-05-01T00:51:30.673Z,4.63
2019-05-01T00:53:59.159Z,4.50
2019-05-01T00:56:29.286Z,5.17
2019-05-01T00:58:59.381Z,4.23
2019-05-01T01:01:35.265Z,4.57
2019-05-01T01:04:03.810Z,3.57
2019-05-01T01:06:32.279Z,4.37
2019-05-01T01:09:00.762Z,3.80
2019-05-01T01:11:29.334Z,4.00
2019-05-01T01:13:57.832Z,4.30
2019-05-01T01:16:26.321Z,3.90
2019-05-01T01:18:54.799Z,4.20
2019-05-01T01:21:23.334Z,4.10
2019-05-01T01:23:51.963Z,4.23
2019-05-01T01:26:20.622Z,4.30
2019-05-01T01:28:49.247Z,3.90
2019-05-01T01:31:17.872Z,3.70
2019-05-01T01:33:46.438Z,3.67
2019-05-01T01:36:14.991Z,3.73
2019-05-01T01:38:43.558Z,3.90
2019-05-01T01:41:12.455Z,4.10
2019-05-01T01:43:42.717Z,3.47
2019-05-01T01:46:19.061Z,4.00
2019-05-01T01:48:47.690Z,3.63
2019-05-01T01:51:16.604Z,3.93
2019-05-01T01:53:45.158Z,4.20
2019-05-01T01:56:14.071Z,4.17
2019-05-01T01:58:42.708Z,4.13
2019-05-01T02:01:31.012Z,4.07
2019-05-01T02:04:01.328Z,4.33
2019-05-01T02:06:29.902Z,3.90
2019-05-01T02:08:58.519Z,4.17
2019-05-01T02:11:27.156Z,4.00
2019-05-01T02:13:56.384Z,4.10
2019-05-01T02:16:25.748Z,4.27
2019-05-01T02:18:54.379Z,3.70
2019-05-01T02:21:22.916Z,3.77
2019-05-01T02:23:51.418Z,4.07
2019-05-01T02:26:22.207Z,3.70
2019-05-01T02:29:08.144Z,4.10
2019-05-01T02:31:44.331Z,3.23
2019-05-01T02:34:13.539Z,3.87
2019-05-01T02:36:43.582Z,3.30
2019-05-01T02:39:12.944Z,3.93
2019-05-01T02:41:43.516Z,3.53
2019-05-01T02:44:17.602Z,3.63
2019-05-01T02:46:49.314Z,3.37
2019-05-01T02:49:29.822Z,3.80
2019-05-01T02:51:58.565Z,2.97
2019-05-01T02:54:28.177Z,3.30
2019-05-01T02:57:01.771Z,3.40
2019-05-01T02:59:33.071Z,3.27
2019-05-01T03:02:03.175Z,3.50
2019-05-01T03:04:33.443Z,2.93
2019-05-01T03:07:04.112Z,2.80
2019-05-01T03:09:33.442Z,3.10
2019-05-01T03:12:04.157Z,3.57
2019-05-01T03:14:35.691Z,3.07
2019-05-01T03:17:07.270Z,3.27
2019-05-01T03:19:37.406Z,3.87
2019-05-01T03:22:23.958Z,2.73
2019-05-01T03:24:52.495Z,3.17
2019-05-01T03:27:21.101Z,3.00
2019-05-01T03:29:49.687Z,2.80
2019-05-01T03:32:19.714Z,3.10
2019-05-01T03:34:52.601Z,2.63
2019-05-01T03:37:19.124Z,3.17
2019-05-01T03:39:47.761Z,3.20
2019-05-01T03:42:16.304Z,3.53
2019-05-01T03:44:45.377Z,3.70
2019-05-01T03:47:14.097Z,2.83
2019-05-01T03:49:42.634Z,2.87
2019-05-01T03:52:11.202Z,3.17
2019-05-01T03:54:39.736Z,2.90
2019-05-01T03:57:08.512Z,3.10
2019-05-01T03:59:37.648Z,3.90
2019-05-01T04:02:33.178Z,3.00
2019-05-01T04:04:53.415Z,3.03
2019-05-01T04:07:22.033Z,3.40
2019-05-01T04:09:50.521Z,2.87
2019-05-01T04:12:19.251Z,2.90
2019-05-01T04:14:48.297Z,2.60
2019-05-01T04:17:20.877Z,2.40
2019-05-01T04:19:49.424Z,2.00
2019-05-01T04:22:18.249Z,2.53
2019-05-01T04:24:47.871Z,2.77
2019-05-01T04:27:18.151Z,4.50
2019-05-01T04:29:48.748Z,4.37
2019-05-01T04:32:19.232Z,4.80
2019-05-01T04:34:49.459Z,4.20
2019-05-01T04:37:19.668Z,7.00
2019-05-01T04:39:48.539Z,5.23
2019-05-01T04:42:17.442Z,4.50
2019-05-01T04:44:45.992Z,5.00
2019-05-01T04:47:14.625Z,4.90
2019-05-01T04:49:43.613Z,4.53
2019-05-01T04:52:12.213Z,4.60
2019-05-01T04:54:40.899Z,3.90
2019-05-01T04:57:09.429Z,3.30
2019-05-01T04:59:38.443Z,3.13
2019-05-01T05:02:08.947Z,4.30
2019-05-01T05:04:38.191Z,3.67
2019-05-01T05:07:06.736Z,3.80
2019-05-01T05:09:46.672Z,4.17
2019-05-01T05:12:17.783Z,5.40
2019-05-01T05:15:11.012Z,6.60
2019-05-01T05:20:12.881Z,4.60
2019-05-01T05:22:43.937Z,5.43
2019-05-01T05:25:12.628Z,4.20
2019-05-01T05:27:41.571Z,4.30
2019-05-01T05:30:10.181Z,4.67
2019-05-01T05:32:40.240Z,4.60
2019-05-01T05:35:10.364Z,4.40
2019-05-01T05:37:43.181Z,3.53
2019-05-01T05:40:11.992Z,4.00
2019-05-01T05:42:40.822Z,3.90
2019-05-01T05:45:09.687Z,4.93
2019-05-01T05:47:38.439Z,4.33
2019-05-01T05:50:37.164Z,4.60
2019-05-01T05:53:20.188Z,5.03
2019-05-01T05:55:53.386Z,5.70
2019-05-01T05:58:38.171Z,4.70
2019-05-01T06:01:11.278Z,3.47
2019-05-01T06:03:50.476Z,3.40
2019-05-01T06:06:27.096Z,3.97
2019-05-01T06:08:58.932Z,3.07
2019-05-01T06:11:35.356Z,2.70
2019-05-01T06:14:26.956Z,2.97
2019-05-01T06:20:25.890Z,2.80
2019-05-01T06:23:10.447Z,3.20
2019-05-01T06:25:48.508Z,2.77
2019-05-01T06:28:29.452Z,3.23
2019-05-01T06:30:58.377Z,4.50
2019-05-01T06:33:52.526Z,4.00
2019-05-01T06:38:51.302Z,3.90
2019-05-01T06:41:19.957Z,4.20
2019-05-01T06:43:57.138Z,4.37
2019-05-01T06:46:44.733Z,5.07
2019-05-01T06:49:31.205Z,3.97
2019-05-01T06:52:02.410Z,3.60
2019-05-01T06:54:32.691Z,3.93
2019-05-01T06:57:03.694Z,4.43
2019-05-01T06:59:41.716Z,4.47
2019-05-01T07:10:43.576Z,3.20
2019-05-01T07:13:06.764Z,2.50
2019-05-01T07:15:37.151Z,2.63
2019-05-01T07:18:05.793Z,2.30
2019-05-01T07:20:36.100Z,2.30
2019-05-01T07:23:05.239Z,2.30
2019-05-01T07:25:34.823Z,2.20
2019-05-01T07:28:04.195Z,2.20
2019-05-01T07:30:37.410Z,1.97
2019-05-01T07:33:06.171Z,2.17
2019-05-01T07:35:36.792Z,2.77
2019-05-01T07:38:05.002Z,2.23
2019-05-01T07:40:33.733Z,2.43
2019-05-01T07:43:04.267Z,2.00
2019-05-01T07:45:43.615Z,2.10
2019-05-01T07:48:11.112Z,2.03
2019-05-01T07:50:40.098Z,1.90
2019-05-01T07:53:08.655Z,2.00
2019-05-01T07:55:37.393Z,3.27
2019-05-01T07:58:10.288Z,2.13
2019-05-01T08:00:58.092Z,2.10
2019-05-01T08:03:26.675Z,2.07
2019-05-01T08:06:11.467Z,1.90
2019-05-01T08:08:40.969Z,2.10
2019-05-01T08:11:10.336Z,2.87
2019-05-01T08:13:48.676Z,2.33
2019-05-01T08:16:17.191Z,2.80
2019-05-01T08:18:50.043Z,4.63
2019-05-01T08:21:35.941Z,4.00
2019-05-01T08:24:04.608Z,3.73
2019-05-01T08:26:35.367Z,3.83
2019-05-01T08:29:21.335Z,5.00
2019-05-01T08:32:09.098Z,4.13
2019-05-01T08:35:08.376Z,3.93
2019-05-01T08:37:36.887Z,3.70
2019-05-01T08:40:07.391Z,4.00
2019-05-01T08:42:40.751Z,3.77
2019-05-01T08:45:14.788Z,3.70
2019-05-01T08:47:44.915Z,4.00
2019-05-01T08:50:15.363Z,3.87
2019-05-01T08:52:47.356Z,4.03
2019-05-01T08:55:14.391Z,4.20
2019-05-01T08:57:42.991Z,3.80
2019-05-01T09:00:11.813Z,4.07
2019-05-01T09:02:43.308Z,3.60
2019-05-01T09:05:27.825Z,3.53
2019-05-01T09:07:42.641Z,3.40
2019-05-01T09:10:11.852Z,3.17
2019-05-01T09:12:42.617Z,3.47
2019-05-01T09:15:14.723Z,4.47
2019-05-01T09:17:44.707Z,4.07
2019-05-01T09:20:16.787Z,3.67
2019-05-01T09:22:45.411Z,3.60
2019-05-01T09:25:17.046Z,3.40
2019-05-01T09:27:52.911Z,3.13
2019-05-01T09:30:35.092Z,3.13
2019-05-01T09:33:03.725Z,2.97
2019-05-01T09:35:32.320Z,3.10
2019-05-01T09:38:00.794Z,3.30
2019-05-01T09:40:29.260Z,3.00
2019-05-01T09:42:59.430Z,2.80
2019-05-01T09:45:28.843Z,3.30
2019-05-01T09:47:57.408Z,3.30
2019-05-01T09:50:30.331Z,2.90
2019-05-01T09:52:59.738Z,3.47
2019-05-01T09:55:44.838Z,3.33
2019-05-01T09:58:13.297Z,3.67
2019-05-01T10:00:43.366Z,3.87
2019-05-01T10:03:13.043Z,3.60
2019-05-01T10:05:42.907Z,3.20
2019-05-01T10:08:12.327Z,3.10
2019-05-01T10:10:40.899Z,3.30
2019-05-01T10:13:11.457Z,3.53
2019-05-01T10:15:39.927Z,3.63
2019-05-01T10:18:09.543Z,3.13
2019-05-01T10:20:40.751Z,4.03
2019-05-01T10:26:04.579Z,4.90
2019-05-01T10:28:51.633Z,4.07
2019-05-01T10:31:42.834Z,4.30
2019-05-01T10:34:19.221Z,4.43
2019-05-01T10:36:49.785Z,3.93
2019-05-01T10:39:20.762Z,4.60
2019-05-01T10:41:49.414Z,4.17
2019-05-01T10:44:19.726Z,4.03
2019-05-01T10:46:52.132Z,5.00
2019-05-01T10:49:20.687Z,4.87
2019-05-01T10:51:49.209Z,5.20
2019-05-01T10:54:19.663Z,5.10
2019-05-01T10:56:48.892Z,4.90
2019-05-01T10:59:17.478Z,4.30
2019-05-01T11:02:07.878Z,5.13
2019-05-01T11:04:40.232Z,4.40
2019-05-01T11:07:08.800Z,4.73
2019-05-01T11:09:37.295Z,4.33
2019-05-01T11:12:05.813Z,4.67
2019-05-01T11:14:36.569Z,4.73
2019-05-01T11:17:14.330Z,5.10
2019-05-01T11:19:42.896Z,4.43
2019-05-01T11:22:11.463Z,5.00
2019-05-01T11:24:41.506Z,5.10
2019-05-01T11:27:10.075Z,4.77
2019-05-01T11:29:42.624Z,4.73
2019-05-01T11:32:29.205Z,4.57
2019-05-01T11:35:08.060Z,5.90
2019-05-01T11:37:46.017Z,5.23
2019-05-01T11:40:16.453Z,5.40
2019-05-01T11:42:44.922Z,4.87
2019-05-01T11:47:49.261Z,4.90
2019-05-01T11:50:17.769Z,4.40
2019-05-01T11:52:46.329Z,4.67
2019-05-01T11:55:14.937Z,4.87
2019-05-01T11:57:43.488Z,4.77
2019-05-01T12:00:14.190Z,5.13
2019-05-01T12:02:42.655Z,4.70
2019-05-01T12:05:11.297Z,4.17
2019-05-01T12:07:39.787Z,5.00
2019-05-01T12:10:08.590Z,4.87
2019-05-01T12:12:37.086Z,4.07
2019-05-01T12:15:07.375Z,4.60
2019-05-01T12:17:39.980Z,3.97
2019-05-01T12:20:08.773Z,3.97
2019-05-01T12:22:37.280Z,3.73
2019-05-01T12:25:06.584Z,4.10
2019-05-01T12:27:35.066Z,4.70
2019-05-01T12:30:05.540Z,3.50
2019-05-01T12:32:34.099Z,4.20
2019-05-01T12:35:02.550Z,4.13
2019-05-01T12:37:38.661Z,4.80
2019-05-01T12:40:08.995Z,4.20
2019-05-01T12:42:37.685Z,4.57
2019-05-01T12:45:13.736Z,4.67
2019-05-01T12:47:52.625Z,5.00
2019-05-01T12:50:22.782Z,4.20
2019-05-01T12:53:00.250Z,4.20
2019-05-01T12:55:45.068Z,4.50
2019-05-01T12:58:13.611Z,4.63
2019-05-01T13:00:46.803Z,4.50
2019-05-01T13:03:15.800Z,3.83
2019-05-01T13:05:44.378Z,4.07
2019-05-01T13:08:14.379Z,4.70
2019-05-01T13:10:42.938Z,4.73
2019-05-01T13:13:11.554Z,4.20
2019-05-01T13:15:40.041Z,3.63
2019-05-01T13:18:08.513Z,4.13
2019-05-01T13:20:37.022Z,4.20
2019-05-01T13:23:05.690Z,4.40
2019-05-01T13:25:34.264Z,4.77
2019-05-01T13:28:20.689Z,4.60
2019-05-01T13:30:59.865Z,4.30
2019-05-01T13:33:28.398Z,4.33
2019-05-01T13:35:57.048Z,3.97
2019-05-01T13:38:25.557Z,4.27
2019-05-01T13:40:54.019Z,4.50
2019-05-01T13:43:30.127Z,4.90
2019-05-01T13:46:08.969Z,4.13
2019-05-01T13:48:37.537Z,4.63
2019-05-01T13:51:06.325Z,4.30
2019-05-01T13:53:45.116Z,4.40
2019-05-01T13:56:22.898Z,4.60
2019-05-01T13:58:51.370Z,4.50
2019-05-01T14:01:21.802Z,4.87
2019-05-01T14:03:50.351Z,4.50
2019-05-01T14:06:18.918Z,4.97
2019-05-01T14:08:47.401Z,4.73
2019-05-01T14:11:16.098Z,4.63
2019-05-01T14:13:45.727Z,4.50
2019-05-01T14:16:14.504Z,4.70
2019-05-01T14:18:43.069Z,5.17
2019-05-01T14:21:13.237Z,4.10
2019-05-01T14:23:59.638Z,4.47
2019-05-01T14:26:33.929Z,4.13
2019-05-01T14:29:06.939Z,4.63
2019-05-01T14:31:37.034Z,5.20
2019-05-01T14:34:10.414Z,5.30
2019-05-01T14:36:39.772Z,5.27
2019-05-01T14:42:40.405Z,4.50
2019-05-01T14:57:25.755Z,4.93
2019-05-01T14:59:54.253Z,4.80
2019-05-01T15:02:48.132Z,4.87
2019-05-01T15:05:25.871Z,5.10
2019-05-01T15:07:54.528Z,4.90
2019-05-01T15:10:23.062Z,4.90
2019-05-01T15:12:53.296Z,4.63
2019-05-01T15:15:38.308Z,5.40
2019-05-01T15:18:37.488Z,5.00
2019-05-01T15:21:07.835Z,4.73
2019-05-01T15:26:40.919Z,4.93
2019-05-01T15:29:10.038Z,4.63
2019-05-01T15:31:38.644Z,5.53
2019-05-01T15:34:09.401Z,5.20
2019-05-01T15:36:37.934Z,4.73
2019-05-01T15:39:11.368Z,4.47
2019-05-01T15:41:47.011Z,4.00
2019-05-01T15:44:17.166Z,4.00
2019-05-01T15:46:45.827Z,4.00
2019-05-01T15:49:14.396Z,4.20
2019-05-01T15:51:43.157Z,4.27
2019-05-01T15:54:11.740Z,4.30
2019-05-01T15:56:40.299Z,4.30
2019-05-01T15:59:08.804Z,4.27
2019-05-01T16:01:37.316Z,3.70
2019-05-01T16:04:05.956Z,3.30
2019-05-01T16:06:34.577Z,3.70
2019-05-01T16:09:04.973Z,3.80
2019-05-01T16:11:50.063Z,3.90
2019-05-01T16:14:18.726Z,3.67
2019-05-01T16:16:47.223Z,3.70
2019-05-01T16:19:15.734Z,3.60
2019-05-01T16:21:44.318Z,3.53
2019-05-01T16:24:12.897Z,3.70
2019-05-01T16:26:41.413Z,3.07
2019-05-01T16:29:09.902Z,3.73
2019-05-01T16:31:38.506Z,3.47
2019-05-01T16:34:07.042Z,3.70
2019-05-01T16:36:35.623Z,3.50
2019-05-01T16:39:12.774Z,4.20
2019-05-01T16:41:43.258Z,3.43
2019-05-01T16:44:11.843Z,3.40
2019-05-01T16:46:41.009Z,3.13
2019-05-01T16:49:09.619Z,3.43
2019-05-01T16:51:38.189Z,3.77
2019-05-01T16:54:07.595Z,3.73
2019-05-01T16:56:36.242Z,3.53
2019-05-01T16:59:04.991Z,3.13
2019-05-01T17:01:35.322Z,3.13
2019-05-01T17:04:20.805Z,3.50
2019-05-01T17:06:51.126Z,2.93
2019-05-01T17:09:21.522Z,3.27
2019-05-01T17:11:50.284Z,3.47
2019-05-01T17:14:19.616Z,3.53
2019-05-01T17:16:48.201Z,3.67
2019-05-01T17:19:16.824Z,3.23
2019-05-01T17:21:45.576Z,3.13
2019-05-01T17:24:14.090Z,3.43
2019-05-01T17:26:42.656Z,3.97
2019-05-01T17:29:11.196Z,3.67
2019-05-01T17:31:39.701Z,3.70
2019-05-01T17:34:09.785Z,4.17
2019-05-01T17:36:38.411Z,4.47
2019-05-01T17:39:07.086Z,4.43
2019-05-01T17:41:35.591Z,3.90
2019-05-01T17:44:04.447Z,4.70
2019-05-01T17:46:33.079Z,3.67
2019-05-01T17:49:04.261Z,3.67
2019-05-01T17:51:31.961Z,3.57
2019-05-01T17:54:00.469Z,3.43
2019-05-01T17:56:28.973Z,4.03
2019-05-01T17:58:57.463Z,4.10
2019-05-01T18:01:45.516Z,3.70
2019-05-01T18:04:18.389Z,3.50
2019-05-01T18:06:48.679Z,3.67
2019-05-01T18:09:17.871Z,3.83
2019-05-01T18:11:47.448Z,3.50
2019-05-01T18:14:16.679Z,3.60
2019-05-01T18:16:45.186Z,3.80
2019-05-01T18:19:13.857Z,4.97
2019-05-01T18:21:46.709Z,4.40
2019-05-01T18:24:28.203Z,3.53
2019-05-01T18:27:14.743Z,3.30
2019-05-01T18:29:45.861Z,3.40
2019-05-01T18:32:22.158Z,3.80
2019-05-01T18:34:50.654Z,4.10
2019-05-01T18:37:20.818Z,4.10
2019-05-01T18:39:49.394Z,3.63
2019-05-01T18:42:17.902Z,3.53
2019-05-01T18:44:47.404Z,3.90
2019-05-01T18:47:16.923Z,3.97
2019-05-01T18:49:45.528Z,4.40
2019-05-01T18:52:14.210Z,3.73
2019-05-01T18:54:42.721Z,4.27
2019-05-01T18:57:11.385Z,4.40
2019-05-01T18:59:39.913Z,4.27
2019-05-01T19:02:08.494Z,4.30
2019-05-01T19:04:37.118Z,4.03
2019-05-01T19:07:05.758Z,4.00
2019-05-01T19:09:36.605Z,5.20
2019-05-01T19:12:06.533Z,3.73
2019-05-01T19:14:35.116Z,3.80
2019-05-01T19:17:03.810Z,4.10
2019-05-01T19:19:32.465Z,3.87
2019-05-01T19:22:02.689Z,4.60
2019-05-01T19:24:32.439Z,4.23
2019-05-01T19:27:01.902Z,4.33
2019-05-01T19:29:32.108Z,4.90
2019-05-01T19:32:00.886Z,4.70
2019-05-01T19:34:29.389Z,4.73
2019-05-01T19:36:57.915Z,4.97
2019-05-01T19:39:26.472Z,4.70
2019-05-01T19:41:55.267Z,4.13
2019-05-01T19:44:23.714Z,3.93
2019-05-01T19:46:52.304Z,4.40
2019-05-01T19:49:24.614Z,3.57
2019-05-01T19:51:55.356Z,4.17
2019-05-01T19:54:23.116Z,3.40
2019-05-01T19:56:52.137Z,3.50
2019-05-01T19:59:20.605Z,3.57
2019-05-01T20:01:49.636Z,3.80
2019-05-01T20:04:18.293Z,4.27
2019-05-01T20:06:46.837Z,3.50
2019-05-01T20:09:15.748Z,3.70
2019-05-01T20:11:44.247Z,3.17
2019-05-01T20:14:12.814Z,3.50
2019-05-01T20:16:41.342Z,3.50
2019-05-01T20:19:09.901Z,3.90
2019-05-01T20:21:41.514Z,3.90
2019-05-01T20:24:09.263Z,3.57
2019-05-01T20:26:39.021Z,3.50
2019-05-01T20:29:07.920Z,3.30
2019-05-01T20:31:36.539Z,4.40
2019-05-01T20:34:05.106Z,3.23
2019-05-01T20:36:33.664Z,3.13
2019-05-01T20:39:02.234Z,3.53
2019-05-01T20:41:30.812Z,3.60
2019-05-01T20:43:59.306Z,3.30
2019-05-01T20:46:28.148Z,2.90
2019-05-01T20:49:01.416Z,3.27
2019-05-01T20:51:27.008Z,3.27
2019-05-01T20:53:55.588Z,3.10
2019-05-01T20:56:26.001Z,6.50
2019-05-01T20:58:57.831Z,4.10
2019-05-01T21:01:28.342Z,3.60
2019-05-01T21:04:02.601Z,3.57
2019-05-01T21:06:39.110Z,2.97
2019-05-01T21:09:13.553Z,2.67
2019-05-01T21:11:42.106Z,2.93
2019-05-01T21:14:18.127Z,3.00
2019-05-01T21:16:42.726Z,2.97
2019-05-01T21:19:11.263Z,2.83
2019-05-01T21:21:39.987Z,3.10
2019-05-01T21:24:08.554Z,2.90
2019-05-01T21:26:37.054Z,2.60
2019-05-01T21:29:05.726Z,2.70
2019-05-01T21:31:34.270Z,3.00
2019-05-01T21:34:04.258Z,2.67
2019-05-01T21:36:32.835Z,2.23
2019-05-01T21:39:01.359Z,3.00
2019-05-01T21:41:29.961Z,2.60
2019-05-01T21:43:58.501Z,2.30
2019-05-01T21:46:27.028Z,2.90
2019-05-01T21:48:55.664Z,2.50
2019-05-01T21:51:24.173Z,2.30
2019-05-01T21:53:53.008Z,2.90
2019-05-01T21:56:21.551Z,2.63
2019-05-01T21:58:50.049Z,2.60
2019-05-01T22:01:18.892Z,2.37
2019-05-01T22:03:47.463Z,2.13
2019-05-01T22:06:16.689Z,2.50
2019-05-01T22:08:45.358Z,2.43
2019-05-01T22:11:13.996Z,2.50
2019-05-01T22:13:42.498Z,4.40
2019-05-01T22:16:12.668Z,2.60
2019-05-01T22:18:45.670Z,2.37
2019-05-01T22:21:16.019Z,2.10
2019-05-01T22:23:51.700Z,2.73
2019-05-01T22:26:20.308Z,2.20
2019-05-01T22:28:54.762Z,2.23
2019-05-01T22:31:38.802Z,2.47
2019-05-01T22:34:08.933Z,2.60
2019-05-01T22:36:37.498Z,2.83
2019-05-01T22:39:08.290Z,2.60
2019-05-01T22:41:36.869Z,2.30
2019-05-01T22:44:05.798Z,2.20
2019-05-01T22:46:39.146Z,2.10
2019-05-01T22:49:04.938Z,2.23
2019-05-01T22:51:33.472Z,2.20
2019-05-01T22:54:02.028Z,2.10
2019-05-01T22:56:30.530Z,2.50
2019-05-01T22:58:59.316Z,1.80
2019-05-01T23:01:28.185Z,2.20
2019-05-01T23:03:58.400Z,2.03
2019-05-01T23:06:27.268Z,2.00
2019-05-01T23:08:55.896Z,2.20
2019-05-01T23:11:26.266Z,1.90
2019-05-01T23:13:54.969Z,2.30
2019-05-01T23:16:28.680Z,2.00
2019-05-01T23:18:55.577Z,2.10
2019-05-01T23:21:24.157Z,1.90
2019-05-01T23:23:56.826Z,2.00
2019-05-01T23:26:22.931Z,2.27
2019-05-01T23:28:51.743Z,2.13
2019-05-01T23:31:20.702Z,2.13
2019-05-01T23:33:50.677Z,1.60
2019-05-01T23:36:23.775Z,1.83
2019-05-01T23:38:49.719Z,2.20
2019-05-01T23:41:18.405Z,2.00
2019-05-01T23:43:46.924Z,2.27
2019-05-01T23:46:15.524Z,2.20
2019-05-01T23:48:44.030Z,2.10
2019-05-01T23:51:12.561Z,1.80
2019-05-01T23:53:44.352Z,1.77
2019-05-01T23:56:11.408Z,2.10
2019-05-01T23:58:39.910Z,2.30
